sensor_id;sensor_type;location;lat;lon;timestamp;temperature;humidity
21302;DHT22;10810;48.270;9.996;2023-03-01T00:01:30;1.60;99.90
21302;DHT22;10810;48.270;9.996;2023-03-01T00:03:57;1.00;99.90
21302;DHT22;10810;48.270;9.996;2023-03-01T00:06:27;0.20;99.90
21302;DHT22;10810;48.270;9.996;2023-03-01T00:08:54;0.20;99.90
21302;DHT22;10810;48.270;9.996;2023-03-01T00:11:28;0.30;99.90
21302;DHT22;10810;48.270;9.996;2023-03-01T00:14:00;0.40;99.90
21302;DHT22;10810;48.270;9.996;2023-03-01T00:16:39;-1.10;99.90
21302;DHT22;10810;48.270;9.996;2023-03-01T00:19:08;1.30;99.90
21302;DHT22;10810;48.270;9.996;2023-03-01T00:21:39;0.30;99.90
21302;DHT22;10810;48.270;9.996;2023-03-01T00:24:06;-1.30;99.90
21302;DHT22;10810;48.270;9.996;2023-03-01T00:26:33;0.30;99.90
21302;DHT22;10810;48.270;9.996;2023-03-01T00:29:00;0.40;99.90
21302;DHT22;10810;48.270;9.996;2023-03-01T00:31:29;0.40;99.90
21302;DHT22;10810;48.270;9.996;2023-03-01T00:33:58;0.40;99.90
21302;DHT22;10810;48.270;9.996;2023-03-01T00:36:29;0.50;99.90
21302;DHT22;10810;48.270;9.996;2023-03-01T00:39:01;1.50;99.90
21302;DHT22;10810;48.270;9.996;2023-03-01T00:41:28;0.50;99.90
21302;DHT22;10810;48.270;9.996;2023-03-01T00:43:55;0.80;99.90
21302;DHT22;10810;48.270;9.996;2023-03-01T00:46:26;1.60;99.90
21302;DHT22;10810;48.270;9.996;2023-03-01T00:48:53;0.60;99.90
21302;DHT22;10810;48.270;9.996;2023-03-01T00:51:22;1.30;99.90
21302;DHT22;10810;48.270;9.996;2023-03-01T00:53:53;1.70;99.90
21302;DHT22;10810;48.270;9.996;2023-03-01T00:56:24;0.40;99.90
21302;DHT22;10810;48.270;9.996;2023-03-01T00:58:51;0.50;99.90
21302;DHT22;10810;48.270;9.996;2023-03-01T01:01:20;0.90;99.90
21302;DHT22;10810;48.270;9.996;2023-03-01T01:03:49;0.40;99.90
21302;DHT22;10810;48.270;9.996;2023-03-01T01:06:18;1.70;99.90
21302;DHT22;10810;48.270;9.996;2023-03-01T01:08:45;1.10;99.90
21302;DHT22;10810;48.270;9.996;2023-03-01T01:11:13;0.40;99.90
21302;DHT22;10810;48.270;9.996;2023-03-01T01:13:44;0.50;99.90
21302;DHT22;10810;48.270;9.996;2023-03-01T01:16:13;1.90;99.90
21302;DHT22;10810;48.270;9.996;2023-03-01T01:18:40;0.80;99.90
21302;DHT22;10810;48.270;9.996;2023-03-01T01:21:09;1.50;99.90
21302;DHT22;10810;48.270;9.996;2023-03-01T01:23:36;1.60;99.90
21302;DHT22;10810;48.270;9.996;2023-03-01T01:26:05;0.50;99.90
21302;DHT22;10810;48.270;9.996;2023-03-01T01:28:32;0.50;99.90
21302;DHT22;10810;48.270;9.996;2023-03-01T01:31:08;0.50;99.90
21302;DHT22;10810;48.270;9.996;2023-03-01T01:33:35;0.50;99.90
21302;DHT22;10810;48.270;9.996;2023-03-01T01:36:04;0.70;99.90
21302;DHT22;10810;48.270;9.996;2023-03-01T01:38:35;0.50;99.90
21302;DHT22;10810;48.270;9.996;2023-03-01T01:41:03;0.50;99.90
21302;DHT22;10810;48.270;9.996;2023-03-01T01:43:36;0.50;99.90
21302;DHT22;10810;48.270;9.996;2023-03-01T01:46:06;0.50;99.90
21302;DHT22;10810;48.270;9.996;2023-03-01T01:48:46;1.00;99.90
21302;DHT22;10810;48.270;9.996;2023-03-01T01:51:19;0.50;99.90
21302;DHT22;10810;48.270;9.996;2023-03-01T01:53:48;0.40;99.90
21302;DHT22;10810;48.270;9.996;2023-03-01T01:56:18;1.50;99.90
21302;DHT22;10810;48.270;9.996;2023-03-01T01:58:47;0.70;99.90
21302;DHT22;10810;48.270;9.996;2023-03-01T02:01:16;1.50;99.90
21302;DHT22;10810;48.270;9.996;2023-03-01T02:03:44;0.70;99.90
21302;DHT22;10810;48.270;9.996;2023-03-01T02:06:18;0.90;99.90
21302;DHT22;10810;48.270;9.996;2023-03-01T02:08:47;0.50;99.90
21302;DHT22;10810;48.270;9.996;2023-03-01T02:11:17;0.50;99.90
21302;DHT22;10810;48.270;9.996;2023-03-01T02:13:47;1.00;99.90
21302;DHT22;10810;48.270;9.996;2023-03-01T02:16:16;0.50;99.90
21302;DHT22;10810;48.270;9.996;2023-03-01T02:18:44;0.50;99.90
21302;DHT22;10810;48.270;9.996;2023-03-01T02:21:21;0.40;99.90
21302;DHT22;10810;48.270;9.996;2023-03-01T02:23:50;0.30;99.90
21302;DHT22;10810;48.270;9.996;2023-03-01T02:26:23;0.40;99.90
21302;DHT22;10810;48.270;9.996;2023-03-01T02:28:53;0.40;99.90
21302;DHT22;10810;48.270;9.996;2023-03-01T02:31:21;0.50;99.90
21302;DHT22;10810;48.270;9.996;2023-03-01T02:34:07;0.40;99.90
21302;DHT22;10810;48.270;9.996;2023-03-01T02:36:36;0.50;99.90
21302;DHT22;10810;48.270;9.996;2023-03-01T02:39:06;0.40;99.90
21302;DHT22;10810;48.270;9.996;2023-03-01T02:41:42;0.40;99.90
21302;DHT22;10810;48.270;9.996;2023-03-01T02:44:11;0.40;99.90
21302;DHT22;10810;48.270;9.996;2023-03-01T02:46:43;0.40;99.90
21302;DHT22;10810;48.270;9.996;2023-03-01T02:49:19;0.40;99.90
21302;DHT22;10810;48.270;9.996;2023-03-01T02:52:01;0.40;99.90
21302;DHT22;10810;48.270;9.996;2023-03-01T02:54:39;0.40;99.90
21302;DHT22;10810;48.270;9.996;2023-03-01T02:57:07;1.00;99.90
21302;DHT22;10810;48.270;9.996;2023-03-01T02:59:39;0.70;99.90
21302;DHT22;10810;48.270;9.996;2023-03-01T03:02:06;1.20;99.90
21302;DHT22;10810;48.270;9.996;2023-03-01T03:04:34;0.30;99.90
21302;DHT22;10810;48.270;9.996;2023-03-01T03:07:01;0.40;99.90
21302;DHT22;10810;48.270;9.996;2023-03-01T03:09:28;0.40;99.90
21302;DHT22;10810;48.270;9.996;2023-03-01T03:11:55;0.40;99.90
21302;DHT22;10810;48.270;9.996;2023-03-01T03:14:22;0.30;99.90
21302;DHT22;10810;48.270;9.996;2023-03-01T03:16:51;1.60;99.90
21302;DHT22;10810;48.270;9.996;2023-03-01T03:19:19;0.30;99.90
21302;DHT22;10810;48.270;9.996;2023-03-01T03:21:46;1.10;99.90
21302;DHT22;10810;48.270;9.996;2023-03-01T03:24:15;2.00;99.90
21302;DHT22;10810;48.270;9.996;2023-03-01T03:26:43;0.40;99.90
21302;DHT22;10810;48.270;9.996;2023-03-01T03:29:11;0.40;99.90
21302;DHT22;10810;48.270;9.996;2023-03-01T03:31:38;1.40;99.90
21302;DHT22;10810;48.270;9.996;2023-03-01T03:34:07;2.00;99.90
21302;DHT22;10810;48.270;9.996;2023-03-01T03:36:36;0.60;99.90
21302;DHT22;10810;48.270;9.996;2023-03-01T03:39:03;0.60;99.90
21302;DHT22;10810;48.270;9.996;2023-03-01T03:41:31;0.80;99.90
21302;DHT22;10810;48.270;9.996;2023-03-01T03:44:03;1.60;99.90
21302;DHT22;10810;48.270;9.996;2023-03-01T03:46:30;0.40;99.90
21302;DHT22;10810;48.270;9.996;2023-03-01T03:48:58;1.10;99.90
21302;DHT22;10810;48.270;9.996;2023-03-01T03:51:26;0.50;99.90
21302;DHT22;10810;48.270;9.996;2023-03-01T03:53:53;1.00;99.90
21302;DHT22;10810;48.270;9.996;2023-03-01T03:56:20;1.50;99.90
21302;DHT22;10810;48.270;9.996;2023-03-01T03:58:51;0.80;99.90
21302;DHT22;10810;48.270;9.996;2023-03-01T04:01:18;1.60;99.90
21302;DHT22;10810;48.270;9.996;2023-03-01T04:03:45;1.30;99.90
21302;DHT22;10810;48.270;9.996;2023-03-01T04:06:13;0.40;99.90
21302;DHT22;10810;48.270;9.996;2023-03-01T04:08:43;1.10;99.90
21302;DHT22;10810;48.270;9.996;2023-03-01T04:11:11;0.50;99.90
21302;DHT22;10810;48.270;9.996;2023-03-01T04:13:56;0.50;99.90
21302;DHT22;10810;48.270;9.996;2023-03-01T04:16:23;0.50;99.90
21302;DHT22;10810;48.270;9.996;2023-03-01T04:18:52;0.70;99.90
21302;DHT22;10810;48.270;9.996;2023-03-01T04:21:22;1.70;99.90
21302;DHT22;10810;48.270;9.996;2023-03-01T04:23:55;0.60;99.90
21302;DHT22;10810;48.270;9.996;2023-03-01T04:26:24;1.20;99.90
21302;DHT22;10810;48.270;9.996;2023-03-01T04:28:52;1.60;99.90
21302;DHT22;10810;48.270;9.996;2023-03-01T04:31:20;0.60;99.90
21302;DHT22;10810;48.270;9.996;2023-03-01T04:33:48;0.60;99.90
21302;DHT22;10810;48.270;9.996;2023-03-01T04:36:17;0.60;99.90
21302;DHT22;10810;48.270;9.996;2023-03-01T04:38:45;0.60;99.90
21302;DHT22;10810;48.270;9.996;2023-03-01T04:41:16;1.60;99.90
21302;DHT22;10810;48.270;9.996;2023-03-01T04:43:43;0.60;99.90
21302;DHT22;10810;48.270;9.996;2023-03-01T04:46:12;1.70;99.90
21302;DHT22;10810;48.270;9.996;2023-03-01T04:48:42;1.00;99.90
21302;DHT22;10810;48.270;9.996;2023-03-01T04:51:15;0.70;99.90
21302;DHT22;10810;48.270;9.996;2023-03-01T04:53:44;1.10;99.90
21302;DHT22;10810;48.270;9.996;2023-03-01T04:56:12;1.80;99.90
21302;DHT22;10810;48.270;9.996;2023-03-01T04:58:45;1.30;99.90
21302;DHT22;10810;48.270;9.996;2023-03-01T05:01:14;-0.20;99.90
21302;DHT22;10810;48.270;9.996;2023-03-01T05:03:42;0.70;99.90
21302;DHT22;10810;48.270;9.996;2023-03-01T05:06:12;1.00;99.90
21302;DHT22;10810;48.270;9.996;2023-03-01T05:08:40;1.20;99.90
21302;DHT22;10810;48.270;9.996;2023-03-01T05:11:15;0.80;99.90
21302;DHT22;10810;48.270;9.996;2023-03-01T05:13:47;0.70;99.90
21302;DHT22;10810;48.270;9.996;2023-03-01T05:16:15;0.80;99.90
21302;DHT22;10810;48.270;9.996;2023-03-01T05:18:50;1.30;99.90
21302;DHT22;10810;48.270;9.996;2023-03-01T05:21:25;1.60;99.90
21302;DHT22;10810;48.270;9.996;2023-03-01T05:23:59;1.20;99.90
21302;DHT22;10810;48.270;9.996;2023-03-01T05:26:59;1.80;99.90
21302;DHT22;10810;48.270;9.996;2023-03-01T05:29:28;0.60;99.90
21302;DHT22;10810;48.270;9.996;2023-03-01T05:31:57;1.40;99.90
21302;DHT22;10810;48.270;9.996;2023-03-01T05:34:25;1.40;99.90
21302;DHT22;10810;48.270;9.996;2023-03-01T05:36:53;0.60;99.90
21302;DHT22;10810;48.270;9.996;2023-03-01T05:39:20;1.70;99.90
21302;DHT22;10810;48.270;9.996;2023-03-01T05:41:48;1.80;99.90
21302;DHT22;10810;48.270;9.996;2023-03-01T05:44:15;1.30;99.90
21302;DHT22;10810;48.270;9.996;2023-03-01T05:46:44;0.50;99.90
21302;DHT22;10810;48.270;9.996;2023-03-01T05:49:12;0.90;99.90
21302;DHT22;10810;48.270;9.996;2023-03-01T05:51:41;0.60;99.90
21302;DHT22;10810;48.270;9.996;2023-03-01T05:54:10;0.70;99.90
21302;DHT22;10810;48.270;9.996;2023-03-01T05:56:37;0.50;99.90
21302;DHT22;10810;48.270;9.996;2023-03-01T05:59:05;0.80;99.90
21302;DHT22;10810;48.270;9.996;2023-03-01T06:01:39;0.40;99.90
21302;DHT22;10810;48.270;9.996;2023-03-01T06:04:08;0.90;99.90
21302;DHT22;10810;48.270;9.996;2023-03-01T06:06:37;0.60;99.90
21302;DHT22;10810;48.270;9.996;2023-03-01T06:09:05;0.50;99.90
21302;DHT22;10810;48.270;9.996;2023-03-01T06:11:33;1.30;99.90
21302;DHT22;10810;48.270;9.996;2023-03-01T06:14:01;0.40;99.90
21302;DHT22;10810;48.270;9.996;2023-03-01T06:16:28;0.40;99.90
21302;DHT22;10810;48.270;9.996;2023-03-01T06:18:55;0.60;99.90
21302;DHT22;10810;48.270;9.996;2023-03-01T06:21:24;1.40;99.90
21302;DHT22;10810;48.270;9.996;2023-03-01T06:23:55;0.50;99.90
21302;DHT22;10810;48.270;9.996;2023-03-01T06:26:22;1.10;99.90
21302;DHT22;10810;48.270;9.996;2023-03-01T06:28:49;1.40;99.90
21302;DHT22;10810;48.270;9.996;2023-03-01T06:31:18;1.90;99.90
21302;DHT22;10810;48.270;9.996;2023-03-01T06:33:45;1.60;99.90
21302;DHT22;10810;48.270;9.996;2023-03-01T06:36:12;0.10;99.90
21302;DHT22;10810;48.270;9.996;2023-03-01T06:38:41;1.60;99.90
21302;DHT22;10810;48.270;9.996;2023-03-01T06:41:08;0.30;99.90
21302;DHT22;10810;48.270;9.996;2023-03-01T06:43:35;1.10;99.90
21302;DHT22;10810;48.270;9.996;2023-03-01T06:46:04;0.80;99.90
21302;DHT22;10810;48.270;9.996;2023-03-01T06:48:32;0.30;99.90
21302;DHT22;10810;48.270;9.996;2023-03-01T06:50:59;1.60;99.90
21302;DHT22;10810;48.270;9.996;2023-03-01T06:53:27;1.30;99.90
21302;DHT22;10810;48.270;9.996;2023-03-01T06:55:56;1.00;99.90
21302;DHT22;10810;48.270;9.996;2023-03-01T06:58:23;1.00;99.90
21302;DHT22;10810;48.270;9.996;2023-03-01T07:00:50;1.50;99.90
21302;DHT22;10810;48.270;9.996;2023-03-01T07:03:17;0.90;99.90
21302;DHT22;10810;48.270;9.996;2023-03-01T07:05:44;0.30;99.90
21302;DHT22;10810;48.270;9.996;2023-03-01T07:08:11;0.50;99.90
21302;DHT22;10810;48.270;9.996;2023-03-01T07:10:38;0.70;99.90
21302;DHT22;10810;48.270;9.996;2023-03-01T07:13:07;1.20;99.90
21302;DHT22;10810;48.270;9.996;2023-03-01T07:15:35;0.40;99.90
21302;DHT22;10810;48.270;9.996;2023-03-01T07:18:02;1.40;99.90
21302;DHT22;10810;48.270;9.996;2023-03-01T07:20:29;0.30;99.90
21302;DHT22;10810;48.270;9.996;2023-03-01T07:22:56;1.50;99.90
21302;DHT22;10810;48.270;9.996;2023-03-01T07:25:26;1.30;99.90
21302;DHT22;10810;48.270;9.996;2023-03-01T07:28:16;0.30;99.90
21302;DHT22;10810;48.270;9.996;2023-03-01T07:30:49;1.40;99.90
21302;DHT22;10810;48.270;9.996;2023-03-01T07:33:16;1.50;99.90
21302;DHT22;10810;48.270;9.996;2023-03-01T07:35:43;0.80;99.90
21302;DHT22;10810;48.270;9.996;2023-03-01T07:38:10;1.80;99.90
21302;DHT22;10810;48.270;9.996;2023-03-01T07:40:37;2.10;99.90
21302;DHT22;10810;48.270;9.996;2023-03-01T07:43:24;1.70;99.90
21302;DHT22;10810;48.270;9.996;2023-03-01T07:46:10;1.50;99.90
21302;DHT22;10810;48.270;9.996;2023-03-01T07:48:39;1.60;99.90
21302;DHT22;10810;48.270;9.996;2023-03-01T07:51:06;0.40;99.90
21302;DHT22;10810;48.270;9.996;2023-03-01T07:53:37;0.70;99.90
21302;DHT22;10810;48.270;9.996;2023-03-01T07:56:12;1.40;99.90
21302;DHT22;10810;48.270;9.996;2023-03-01T07:58:40;2.00;99.90
21302;DHT22;10810;48.270;9.996;2023-03-01T08:01:13;1.70;99.90
21302;DHT22;10810;48.270;9.996;2023-03-01T08:03:41;1.80;99.90
21302;DHT22;10810;48.270;9.996;2023-03-01T08:06:12;1.70;99.90
21302;DHT22;10810;48.270;9.996;2023-03-01T08:08:39;1.20;99.90
21302;DHT22;10810;48.270;9.996;2023-03-01T08:11:27;1.40;99.90
21302;DHT22;10810;48.270;9.996;2023-03-01T08:14:08;0.40;99.90
21302;DHT22;10810;48.270;9.996;2023-03-01T08:23:10;0.70;99.90
21302;DHT22;10810;48.270;9.996;2023-03-01T08:25:38;1.10;99.90
21302;DHT22;10810;48.270;9.996;2023-03-01T08:28:05;0.60;99.90
21302;DHT22;10810;48.270;9.996;2023-03-01T08:30:53;1.60;99.90
21302;DHT22;10810;48.270;9.996;2023-03-01T08:33:27;1.90;99.90
21302;DHT22;10810;48.270;9.996;2023-03-01T08:36:11;1.00;99.90
21302;DHT22;10810;48.270;9.996;2023-03-01T08:38:40;2.00;99.90
21302;DHT22;10810;48.270;9.996;2023-03-01T08:41:08;0.80;99.90
21302;DHT22;10810;48.270;9.996;2023-03-01T08:43:35;2.10;99.90
21302;DHT22;10810;48.270;9.996;2023-03-01T08:46:09;1.80;99.90
21302;DHT22;10810;48.270;9.996;2023-03-01T08:48:37;2.30;99.90
21302;DHT22;10810;48.270;9.996;2023-03-01T08:51:08;1.00;99.90
21302;DHT22;10810;48.270;9.996;2023-03-01T08:53:37;0.90;99.90
21302;DHT22;10810;48.270;9.996;2023-03-01T08:56:15;1.50;99.90
21302;DHT22;10810;48.270;9.996;2023-03-01T08:58:44;2.20;99.90
21302;DHT22;10810;48.270;9.996;2023-03-01T09:01:15;0.90;99.90
21302;DHT22;10810;48.270;9.996;2023-03-01T09:03:43;1.10;99.90
21302;DHT22;10810;48.270;9.996;2023-03-01T09:06:11;1.60;99.90
21302;DHT22;10810;48.270;9.996;2023-03-01T09:08:41;1.80;99.90
21302;DHT22;10810;48.270;9.996;2023-03-01T09:11:11;1.80;99.90
21302;DHT22;10810;48.270;9.996;2023-03-01T09:13:38;1.90;99.90
21302;DHT22;10810;48.270;9.996;2023-03-01T09:16:07;1.30;99.90
21302;DHT22;10810;48.270;9.996;2023-03-01T09:18:35;1.40;99.90
21302;DHT22;10810;48.270;9.996;2023-03-01T09:21:04;1.30;99.90
21302;DHT22;10810;48.270;9.996;2023-03-01T09:23:33;1.10;99.90
21302;DHT22;10810;48.270;9.996;2023-03-01T09:26:00;2.10;99.90
21302;DHT22;10810;48.270;9.996;2023-03-01T09:28:31;1.80;99.90
21302;DHT22;10810;48.270;9.996;2023-03-01T09:30:58;1.20;99.90
21302;DHT22;10810;48.270;9.996;2023-03-01T09:33:26;1.10;99.90
21302;DHT22;10810;48.270;9.996;2023-03-01T09:35:56;1.10;99.90
21302;DHT22;10810;48.270;9.996;2023-03-01T09:38:26;1.20;99.90
21302;DHT22;10810;48.270;9.996;2023-03-01T09:40:53;2.10;99.90
21302;DHT22;10810;48.270;9.996;2023-03-01T09:43:26;1.80;99.90
21302;DHT22;10810;48.270;9.996;2023-03-01T09:46:06;2.00;99.90
21302;DHT22;10810;48.270;9.996;2023-03-01T09:48:44;1.40;99.90
21302;DHT22;10810;48.270;9.996;2023-03-01T09:51:32;1.20;99.90
21302;DHT22;10810;48.270;9.996;2023-03-01T09:54:01;1.50;99.90
21302;DHT22;10810;48.270;9.996;2023-03-01T09:56:36;2.20;99.90
21302;DHT22;10810;48.270;9.996;2023-03-01T09:59:16;1.90;99.90
21302;DHT22;10810;48.270;9.996;2023-03-01T10:01:55;2.20;99.90
21302;DHT22;10810;48.270;9.996;2023-03-01T10:04:32;2.00;99.90
21302;DHT22;10810;48.270;9.996;2023-03-01T10:07:27;1.50;99.90
21302;DHT22;10810;48.270;9.996;2023-03-01T10:10:00;1.90;99.90
21302;DHT22;10810;48.270;9.996;2023-03-01T10:12:34;1.80;99.90
21302;DHT22;10810;48.270;9.996;2023-03-01T10:15:05;1.60;99.90
21302;DHT22;10810;48.270;9.996;2023-03-01T10:17:42;1.50;99.90
21302;DHT22;10810;48.270;9.996;2023-03-01T10:20:26;1.90;99.90
21302;DHT22;10810;48.270;9.996;2023-03-01T10:22:53;1.70;99.90
21302;DHT22;10810;48.270;9.996;2023-03-01T10:25:40;1.60;99.90
21302;DHT22;10810;48.270;9.996;2023-03-01T10:28:17;1.60;99.90
21302;DHT22;10810;48.270;9.996;2023-03-01T10:30:44;1.70;99.90
21302;DHT22;10810;48.270;9.996;2023-03-01T10:33:17;1.70;99.90
21302;DHT22;10810;48.270;9.996;2023-03-01T10:35:53;1.70;99.90
21302;DHT22;10810;48.270;9.996;2023-03-01T10:38:26;1.90;99.90
21302;DHT22;10810;48.270;9.996;2023-03-01T10:41:07;1.70;99.90
21302;DHT22;10810;48.270;9.996;2023-03-01T10:43:44;2.00;99.90
21302;DHT22;10810;48.270;9.996;2023-03-01T10:46:23;2.10;99.90
21302;DHT22;10810;48.270;9.996;2023-03-01T10:49:10;2.10;99.90
21302;DHT22;10810;48.270;9.996;2023-03-01T10:51:39;2.20;99.90
21302;DHT22;10810;48.270;9.996;2023-03-01T10:54:16;2.20;99.90
21302;DHT22;10810;48.270;9.996;2023-03-01T10:56:48;2.00;99.90
21302;DHT22;10810;48.270;9.996;2023-03-01T10:59:34;2.10;99.90
21302;DHT22;10810;48.270;9.996;2023-03-01T11:02:13;2.10;99.90
21302;DHT22;10810;48.270;9.996;2023-03-01T11:04:57;2.00;99.90
21302;DHT22;10810;48.270;9.996;2023-03-01T11:07:24;2.10;99.90
21302;DHT22;10810;48.270;9.996;2023-03-01T11:09:57;2.10;99.90
21302;DHT22;10810;48.270;9.996;2023-03-01T11:12:32;2.10;99.90
21302;DHT22;10810;48.270;9.996;2023-03-01T11:15:23;2.10;99.90
21302;DHT22;10810;48.270;9.996;2023-03-01T11:17:51;2.20;99.90
21302;DHT22;10810;48.270;9.996;2023-03-01T11:20:32;2.30;99.90
21302;DHT22;10810;48.270;9.996;2023-03-01T11:23:02;2.70;99.90
21302;DHT22;10810;48.270;9.996;2023-03-01T11:25:53;2.40;99.90
21302;DHT22;10810;48.270;9.996;2023-03-01T11:28:30;1.70;99.90
21302;DHT22;10810;48.270;9.996;2023-03-01T11:31:12;2.60;99.90
21302;DHT22;10810;48.270;9.996;2023-03-01T11:33:49;2.90;99.90
21302;DHT22;10810;48.270;9.996;2023-03-01T11:36:41;2.60;99.90
21302;DHT22;10810;48.270;9.996;2023-03-01T11:39:46;2.60;99.90
21302;DHT22;10810;48.270;9.996;2023-03-01T11:42:46;2.80;99.90
21302;DHT22;10810;48.270;9.996;2023-03-01T11:45:16;2.60;99.90
21302;DHT22;10810;48.270;9.996;2023-03-01T11:48:17;2.70;99.90
21302;DHT22;10810;48.270;9.996;2023-03-01T11:51:32;2.60;99.90
21302;DHT22;10810;48.270;9.996;2023-03-01T11:54:38;2.60;99.90
21302;DHT22;10810;48.270;9.996;2023-03-01T11:57:39;2.90;99.90
21302;DHT22;10810;48.270;9.996;2023-03-01T12:00:25;2.80;99.90
21302;DHT22;10810;48.270;9.996;2023-03-01T12:03:20;2.90;99.90
21302;DHT22;10810;48.270;9.996;2023-03-01T12:06:14;3.00;99.90
21302;DHT22;10810;48.270;9.996;2023-03-01T12:09:01;3.20;99.90
21302;DHT22;10810;48.270;9.996;2023-03-01T12:12:02;3.20;99.90
21302;DHT22;10810;48.270;9.996;2023-03-01T12:14:49;3.30;99.90
21302;DHT22;10810;48.270;9.996;2023-03-01T12:17:43;3.30;99.90
21302;DHT22;10810;48.270;9.996;2023-03-01T12:20:51;3.30;99.90
21302;DHT22;10810;48.270;9.996;2023-03-01T12:24:04;3.60;99.90
21302;DHT22;10810;48.270;9.996;2023-03-01T12:26:47;3.70;99.90
21302;DHT22;10810;48.270;9.996;2023-03-01T12:29:50;3.60;99.90
21302;DHT22;10810;48.270;9.996;2023-03-01T12:33:13;3.90;99.90
21302;DHT22;10810;48.270;9.996;2023-03-01T12:36:54;3.80;99.90
21302;DHT22;10810;48.270;9.996;2023-03-01T12:39:21;3.90;99.90
21302;DHT22;10810;48.270;9.996;2023-03-01T12:42:00;4.00;99.90
21302;DHT22;10810;48.270;9.996;2023-03-01T12:44:42;4.10;99.90
21302;DHT22;10810;48.270;9.996;2023-03-01T12:47:22;4.20;99.90
21302;DHT22;10810;48.270;9.996;2023-03-01T12:49:57;4.30;99.90
21302;DHT22;10810;48.270;9.996;2023-03-01T12:52:30;4.30;99.90
21302;DHT22;10810;48.270;9.996;2023-03-01T12:55:02;4.50;99.90
21302;DHT22;10810;48.270;9.996;2023-03-01T12:57:40;4.50;99.90
21302;DHT22;10810;48.270;9.996;2023-03-01T13:00:23;4.40;99.90
21302;DHT22;10810;48.270;9.996;2023-03-01T13:02:56;4.40;99.90
21302;DHT22;10810;48.270;9.996;2023-03-01T13:05:34;4.40;99.90
21302;DHT22;10810;48.270;9.996;2023-03-01T13:08:08;4.30;99.90
21302;DHT22;10810;48.270;9.996;2023-03-01T13:10:42;4.40;99.90
21302;DHT22;10810;48.270;9.996;2023-03-01T13:13:23;4.70;99.90
21302;DHT22;10810;48.270;9.996;2023-03-01T13:15:51;4.70;99.90
21302;DHT22;10810;48.270;9.996;2023-03-01T13:18:30;4.80;99.90
21302;DHT22;10810;48.270;9.996;2023-03-01T13:20:59;4.90;99.90
21302;DHT22;10810;48.270;9.996;2023-03-01T13:23:30;4.90;99.90
21302;DHT22;10810;48.270;9.996;2023-03-01T13:26:09;4.90;99.90
21302;DHT22;10810;48.270;9.996;2023-03-01T13:28:47;4.90;99.90
21302;DHT22;10810;48.270;9.996;2023-03-01T13:34:43;4.90;99.90
21302;DHT22;10810;48.270;9.996;2023-03-01T13:37:19;4.90;99.90
21302;DHT22;10810;48.270;9.996;2023-03-01T13:39:46;5.00;99.90
21302;DHT22;10810;48.270;9.996;2023-03-01T13:42:35;5.10;99.90
21302;DHT22;10810;48.270;9.996;2023-03-01T13:48:00;5.10;99.90
21302;DHT22;10810;48.270;9.996;2023-03-01T13:50:30;5.20;99.90
21302;DHT22;10810;48.270;9.996;2023-03-01T13:53:02;5.20;99.90
21302;DHT22;10810;48.270;9.996;2023-03-01T13:55:36;5.30;99.90
21302;DHT22;10810;48.270;9.996;2023-03-01T13:58:15;5.40;99.90
21302;DHT22;10810;48.270;9.996;2023-03-01T14:00:46;5.50;99.90
21302;DHT22;10810;48.270;9.996;2023-03-01T14:03:15;5.40;99.90
21302;DHT22;10810;48.270;9.996;2023-03-01T14:05:50;5.40;99.90
21302;DHT22;10810;48.270;9.996;2023-03-01T14:08:26;5.40;99.90
21302;DHT22;10810;48.270;9.996;2023-03-01T14:11:06;5.40;99.90
21302;DHT22;10810;48.270;9.996;2023-03-01T14:13:48;5.30;99.90
21302;DHT22;10810;48.270;9.996;2023-03-01T14:16:28;5.30;99.90
21302;DHT22;10810;48.270;9.996;2023-03-01T14:19:08;5.30;99.90
21302;DHT22;10810;48.270;9.996;2023-03-01T14:21:43;5.50;99.90
21302;DHT22;10810;48.270;9.996;2023-03-01T14:24:18;5.70;99.90
21302;DHT22;10810;48.270;9.996;2023-03-01T14:26:47;5.80;99.90
21302;DHT22;10810;48.270;9.996;2023-03-01T14:29:24;5.90;99.90
21302;DHT22;10810;48.270;9.996;2023-03-01T14:31:53;6.20;99.90
21302;DHT22;10810;48.270;9.996;2023-03-01T14:34:23;6.30;99.90
21302;DHT22;10810;48.270;9.996;2023-03-01T14:36:51;6.40;99.90
21302;DHT22;10810;48.270;9.996;2023-03-01T14:39:25;6.70;99.90
21302;DHT22;10810;48.270;9.996;2023-03-01T14:41:54;6.70;99.60
21302;DHT22;10810;48.270;9.996;2023-03-01T14:44:27;6.60;99.90
21302;DHT22;10810;48.270;9.996;2023-03-01T14:47:20;6.60;99.90
21302;DHT22;10810;48.270;9.996;2023-03-01T14:50:00;6.70;99.50
21302;DHT22;10810;48.270;9.996;2023-03-01T14:52:35;6.30;98.90
21302;DHT22;10810;48.270;9.996;2023-03-01T14:55:36;6.20;99.90
21302;DHT22;10810;48.270;9.996;2023-03-01T14:58:22;6.30;99.90
21302;DHT22;10810;48.270;9.996;2023-03-01T15:02:53;6.50;99.30
21302;DHT22;10810;48.270;9.996;2023-03-01T15:04:13;6.00;99.90
21302;DHT22;10810;48.270;9.996;2023-03-01T15:06:44;6.60;99.70
21302;DHT22;10810;48.270;9.996;2023-03-01T15:09:20;6.60;99.60
21302;DHT22;10810;48.270;9.996;2023-03-01T15:11:50;6.70;99.10
21302;DHT22;10810;48.270;9.996;2023-03-01T15:14:40;6.60;99.30
21302;DHT22;10810;48.270;9.996;2023-03-01T15:17:40;6.40;97.60
21302;DHT22;10810;48.270;9.996;2023-03-01T15:20:29;6.30;98.90
21302;DHT22;10810;48.270;9.996;2023-03-01T15:23:03;6.40;99.80
21302;DHT22;10810;48.270;9.996;2023-03-01T15:25:35;6.40;98.30
21302;DHT22;10810;48.270;9.996;2023-03-01T15:31:24;6.40;98.00
21302;DHT22;10810;48.270;9.996;2023-03-01T15:34:25;6.30;99.30
21302;DHT22;10810;48.270;9.996;2023-03-01T15:37:39;6.20;99.00
21302;DHT22;10810;48.270;9.996;2023-03-01T15:40:56;6.20;98.00
21302;DHT22;10810;48.270;9.996;2023-03-01T15:43:46;6.10;99.10
21302;DHT22;10810;48.270;9.996;2023-03-01T15:46:28;6.00;99.20
21302;DHT22;10810;48.270;9.996;2023-03-01T15:48:58;5.90;99.20
21302;DHT22;10810;48.270;9.996;2023-03-01T15:51:40;5.80;99.90
21302;DHT22;10810;48.270;9.996;2023-03-01T15:54:18;5.80;99.50
21302;DHT22;10810;48.270;9.996;2023-03-01T15:56:45;5.80;99.60
21302;DHT22;10810;48.270;9.996;2023-03-01T15:59:13;5.60;99.90
21302;DHT22;10810;48.270;9.996;2023-03-01T16:01:40;5.60;99.90
21302;DHT22;10810;48.270;9.996;2023-03-01T16:04:09;5.60;99.90
21302;DHT22;10810;48.270;9.996;2023-03-01T16:06:38;5.50;99.90
21302;DHT22;10810;48.270;9.996;2023-03-01T16:09:05;5.40;99.90
21302;DHT22;10810;48.270;9.996;2023-03-01T16:11:35;5.40;99.90
21302;DHT22;10810;48.270;9.996;2023-03-01T16:14:04;5.30;99.90
21302;DHT22;10810;48.270;9.996;2023-03-01T16:16:31;5.30;99.90
21302;DHT22;10810;48.270;9.996;2023-03-01T16:19:00;5.30;99.90
21302;DHT22;10810;48.270;9.996;2023-03-01T16:21:29;5.30;99.90
21302;DHT22;10810;48.270;9.996;2023-03-01T16:24:01;5.20;99.90
21302;DHT22;10810;48.270;9.996;2023-03-01T16:26:36;5.20;99.90
21302;DHT22;10810;48.270;9.996;2023-03-01T16:29:11;5.20;99.90
21302;DHT22;10810;48.270;9.996;2023-03-01T16:31:41;5.20;99.90
21302;DHT22;10810;48.270;9.996;2023-03-01T16:34:10;5.00;99.90
21302;DHT22;10810;48.270;9.996;2023-03-01T16:36:45;5.00;99.90
21302;DHT22;10810;48.270;9.996;2023-03-01T16:39:12;5.00;99.90
21302;DHT22;10810;48.270;9.996;2023-03-01T16:41:46;5.00;99.90
21302;DHT22;10810;48.270;9.996;2023-03-01T16:44:16;5.00;99.90